createdAt,value
2022-09-02T00:01:45.967Z,13.50
2022-09-02T00:04:21.360Z,13.50
2022-09-02T00:06:51.113Z,13.40
2022-09-02T00:09:23.561Z,13.40
2022-09-02T00:11:53.334Z,13.40
2022-09-02T00:14:33.314Z,13.30
2022-09-02T00:17:00.988Z,13.30
2022-09-02T00:19:29.815Z,13.20
2022-09-02T00:21:59.017Z,13.20
2022-09-02T00:24:26.727Z,13.20
2022-09-02T00:26:56.710Z,13.20
2022-09-02T00:29:26.949Z,13.10
2022-09-02T00:31:54.491Z,13.10
2022-09-02T00:34:21.802Z,13.10
2022-09-02T00:36:48.739Z,13.10
2022-09-02T00:39:16.062Z,13.00
2022-09-02T00:41:44.790Z,13.00
2022-09-02T00:44:16.822Z,13.00
2022-09-02T00:46:45.064Z,13.00
2022-09-02T00:49:30.945Z,12.90
2022-09-02T00:52:09.137Z,12.90
2022-09-02T00:54:41.889Z,12.90
2022-09-02T00:57:15.738Z,12.90
2022-09-02T00:59:58.739Z,12.90
2022-09-02T01:02:28.881Z,12.90
2022-09-02T01:04:56.775Z,12.80
2022-09-02T01:07:27.402Z,12.80
2022-09-02T01:09:56.184Z,12.80
2022-09-02T01:12:27.334Z,12.80
2022-09-02T01:14:54.341Z,12.80
2022-09-02T01:17:21.382Z,12.70
2022-09-02T01:20:11.934Z,12.70
2022-09-02T01:22:41.995Z,12.70
2022-09-02T01:25:20.428Z,12.60
2022-09-02T01:27:48.633Z,12.60
2022-09-02T01:30:22.526Z,12.60
2022-09-02T01:32:51.140Z,12.60
2022-09-02T01:35:18.605Z,12.60
2022-09-02T01:37:54.713Z,12.50
2022-09-02T01:40:26.220Z,12.50
2022-09-02T01:43:01.869Z,12.50
2022-09-02T01:45:30.168Z,12.50
2022-09-02T01:47:57.397Z,12.50
2022-09-02T01:50:25.544Z,12.40
2022-09-02T01:52:53.383Z,12.40
2022-09-02T01:55:20.472Z,12.40
2022-09-02T01:57:47.643Z,12.40
2022-09-02T02:00:16.630Z,12.40
2022-09-02T02:02:44.497Z,12.30
2022-09-02T02:05:14.101Z,12.30
2022-09-02T02:07:45.412Z,12.30
2022-09-02T02:10:15.403Z,12.20
2022-09-02T02:12:43.955Z,12.20
2022-09-02T02:15:17.926Z,12.20
2022-09-02T02:17:45.368Z,12.20
2022-09-02T02:20:15.992Z,12.10
2022-09-02T02:22:44.088Z,12.10
2022-09-02T02:25:14.851Z,12.10
2022-09-02T02:27:43.749Z,12.10
2022-09-02T02:30:15.399Z,12.10
2022-09-02T02:32:45.463Z,12.10
2022-09-02T02:35:16.148Z,12.10
2022-09-02T02:37:44.590Z,12.10
2022-09-02T02:40:13.026Z,12.00
2022-09-02T02:42:40.553Z,12.00
2022-09-02T02:45:09.458Z,11.90
2022-09-02T02:47:45.942Z,11.90
2022-09-02T02:50:17.139Z,11.90
2022-09-02T02:52:46.755Z,11.90
2022-09-02T02:55:16.175Z,11.90
2022-09-02T02:57:44.528Z,11.90
2022-09-02T03:00:20.430Z,11.80
2022-09-02T03:02:49.568Z,11.80
2022-09-02T03:05:20.200Z,11.80
2022-09-02T03:07:48.086Z,11.80
2022-09-02T03:10:17.926Z,11.80
2022-09-02T03:12:47.536Z,11.80
2022-09-02T03:15:19.108Z,11.70
2022-09-02T03:17:48.012Z,11.70
2022-09-02T03:20:18.210Z,11.70
2022-09-02T03:22:51.316Z,11.70
2022-09-02T03:25:21.201Z,11.70
2022-09-02T03:27:49.951Z,11.70
2022-09-02T03:30:29.024Z,11.60
2022-09-02T03:33:04.284Z,11.60
2022-09-02T03:35:34.408Z,11.60
2022-09-02T03:38:01.754Z,11.60
2022-09-02T03:40:29.921Z,11.60
2022-09-02T03:43:00.089Z,11.50
2022-09-02T03:45:28.706Z,11.50
2022-09-02T03:47:56.328Z,11.50
2022-09-02T03:50:36.417Z,11.40
2022-09-02T03:53:05.778Z,11.40
2022-09-02T03:55:33.097Z,11.40
2022-09-02T03:58:03.380Z,11.40
2022-09-02T04:00:34.373Z,11.40
2022-09-02T04:03:05.529Z,11.40
2022-09-02T04:05:34.338Z,11.40
2022-09-02T04:08:03.050Z,11.40
2022-09-02T04:10:30.674Z,11.30
2022-09-02T04:12:57.917Z,11.30
2022-09-02T04:15:26.326Z,11.30
2022-09-02T04:17:54.552Z,11.30
2022-09-02T04:20:21.885Z,11.30
2022-09-02T04:22:49.376Z,11.20
2022-09-02T04:25:17.604Z,11.30
2022-09-02T04:27:47.131Z,11.30
2022-09-02T04:30:17.008Z,11.20
2022-09-02T04:32:46.050Z,11.30
2022-09-02T04:35:13.433Z,11.20
2022-09-02T04:37:41.575Z,11.20
2022-09-02T04:40:10.427Z,11.20
2022-09-02T04:42:38.571Z,11.20
2022-09-02T04:45:07.338Z,11.20
2022-09-02T04:47:34.524Z,11.20
2022-09-02T04:50:02.733Z,11.20
2022-09-02T04:52:31.490Z,11.20
2022-09-02T04:54:59.725Z,11.20
2022-09-02T04:57:26.794Z,11.20
2022-09-02T04:59:54.358Z,11.20
2022-09-02T05:02:21.579Z,11.20
2022-09-02T05:04:49.400Z,11.20
2022-09-02T05:07:23.761Z,11.20
2022-09-02T05:09:56.849Z,11.30
2022-09-02T05:12:28.129Z,11.30
2022-09-02T05:15:01.108Z,11.30
2022-09-02T05:17:35.369Z,11.40
2022-09-02T05:20:06.718Z,11.40
2022-09-02T05:22:36.029Z,11.40
2022-09-02T05:25:07.533Z,11.40
2022-09-02T05:27:36.031Z,11.40
2022-09-02T05:30:05.253Z,11.50
2022-09-02T05:32:37.799Z,11.50
2022-09-02T05:35:06.635Z,11.50
2022-09-02T05:37:36.511Z,11.60
2022-09-02T05:40:06.201Z,11.60
2022-09-02T05:42:37.090Z,11.70
2022-09-02T05:45:06.212Z,11.80
2022-09-02T05:47:36.598Z,11.80
2022-09-02T05:50:05.938Z,11.90
2022-09-02T05:52:36.340Z,12.00
2022-09-02T05:55:05.123Z,12.00
2022-09-02T05:57:34.891Z,12.10
2022-09-02T06:00:09.353Z,12.20
2022-09-02T06:02:43.930Z,12.20
2022-09-02T06:05:25.726Z,12.30
2022-09-02T06:08:11.154Z,12.30
2022-09-02T06:10:43.286Z,12.40
2022-09-02T06:13:12.988Z,12.50
2022-09-02T06:15:46.256Z,12.60
2022-09-02T06:18:15.490Z,12.60
2022-09-02T06:20:46.534Z,12.70
2022-09-02T06:23:16.214Z,12.80
2022-09-02T06:25:48.059Z,12.80
2022-09-02T06:28:16.330Z,12.90
2022-09-02T06:30:48.343Z,13.00
2022-09-02T06:33:17.584Z,13.10
2022-09-02T06:35:46.367Z,13.20
2022-09-02T06:38:17.009Z,13.30
2022-09-02T06:40:54.642Z,13.40
2022-09-02T06:43:42.396Z,13.60
2022-09-02T06:46:38.007Z,13.70
2022-09-02T06:49:08.952Z,13.90
2022-09-02T06:51:41.591Z,14.10
2022-09-02T06:54:14.463Z,14.20
2022-09-02T06:56:48.575Z,14.40
2022-09-02T06:59:20.220Z,14.70
2022-09-02T07:01:56.424Z,14.80
2022-09-02T07:04:42.615Z,15.10
2022-09-02T07:07:13.284Z,15.20
2022-09-02T07:09:47.067Z,15.50
2022-09-02T07:12:17.361Z,15.70
2022-09-02T07:14:52.349Z,15.90
2022-09-02T07:17:25.416Z,16.00
2022-09-02T07:20:00.197Z,16.30
2022-09-02T07:22:30.007Z,16.40
2022-09-02T07:24:58.263Z,16.70
2022-09-02T07:27:27.459Z,16.90
2022-09-02T07:29:57.622Z,17.00
2022-09-02T07:32:24.985Z,17.20
2022-09-02T07:34:52.532Z,17.40
2022-09-02T07:37:19.666Z,17.50
2022-09-02T07:39:48.178Z,17.70
2022-09-02T07:42:17.019Z,17.80
2022-09-02T07:44:44.920Z,17.90
2022-09-02T07:47:12.742Z,18.20
2022-09-02T07:52:30.932Z,18.30
2022-09-02T07:54:58.233Z,18.50
2022-09-02T07:57:26.026Z,18.70
2022-09-02T07:59:53.267Z,18.70
2022-09-02T08:02:20.600Z,18.90
2022-09-02T08:04:47.757Z,19.00
2022-09-02T08:07:16.887Z,19.20
2022-09-02T08:09:44.068Z,19.30
2022-09-02T08:12:11.180Z,19.40
2022-09-02T08:14:38.244Z,19.40
2022-09-02T08:17:05.344Z,19.50
2022-09-02T08:19:33.137Z,19.70
2022-09-02T08:22:06.589Z,19.80
2022-09-02T08:24:33.878Z,19.90
2022-09-02T08:27:00.974Z,20.10
2022-09-02T08:29:28.046Z,20.20
2022-09-02T08:31:55.052Z,20.30
2022-09-02T08:34:22.410Z,20.40
2022-09-02T08:36:56.700Z,20.60
2022-09-02T08:39:24.967Z,20.60
2022-09-02T08:42:21.714Z,20.80
2022-09-02T08:44:52.071Z,20.90
2022-09-02T08:47:26.456Z,21.10
2022-09-02T08:50:00.973Z,21.10
2022-09-02T08:53:00.567Z,21.30
2022-09-02T08:55:45.997Z,21.40
2022-09-02T08:58:20.627Z,21.40
2022-09-02T09:01:21.163Z,21.60
2022-09-02T09:04:21.244Z,21.60
2022-09-02T09:07:20.732Z,21.80
2022-09-02T09:10:15.157Z,21.90
2022-09-02T09:13:32.116Z,22.00
2022-09-02T09:16:20.017Z,22.00
2022-09-02T09:19:21.704Z,22.30
2022-09-02T09:21:48.733Z,22.50
2022-09-02T09:24:24.397Z,22.50
2022-09-02T09:26:53.674Z,22.50
2022-09-02T09:29:21.244Z,22.50
2022-09-02T09:31:57.649Z,22.70
2022-09-02T09:34:24.967Z,22.80
2022-09-02T09:36:55.918Z,22.80
2022-09-02T09:39:32.669Z,22.90
2022-09-02T09:42:12.491Z,23.20
2022-09-02T09:44:48.077Z,23.20
2022-09-02T09:47:25.871Z,23.30
2022-09-02T09:50:10.740Z,23.30
2022-09-02T09:52:38.491Z,23.40
2022-09-02T09:55:22.786Z,23.40
2022-09-02T09:57:53.933Z,23.60
2022-09-02T10:00:34.459Z,23.80
2022-09-02T10:03:05.954Z,23.80
2022-09-02T10:05:38.945Z,24.10
2022-09-02T10:08:24.069Z,23.90
2022-09-02T10:11:08.448Z,23.90
2022-09-02T10:13:37.858Z,24.10
2022-09-02T10:16:34.961Z,24.20
2022-09-02T10:19:11.596Z,24.20
2022-09-02T10:22:07.718Z,24.40
2022-09-02T10:24:55.020Z,24.30
2022-09-02T10:27:43.760Z,24.50
2022-09-02T10:30:21.908Z,24.60
2022-09-02T10:33:21.463Z,24.50
2022-09-02T10:35:59.720Z,24.50
2022-09-02T10:38:43.429Z,24.60
2022-09-02T10:41:34.634Z,24.90
2022-09-02T10:44:31.362Z,25.00
2022-09-02T10:47:00.469Z,25.20
2022-09-02T10:49:51.918Z,25.20
2022-09-02T10:52:34.810Z,25.20
2022-09-02T10:55:22.248Z,25.10
2022-09-02T10:58:00.190Z,25.20
2022-09-02T11:00:31.593Z,25.40
2022-09-02T11:03:13.732Z,25.60
2022-09-02T11:05:48.169Z,25.50
2022-09-02T11:08:39.386Z,25.50
2022-09-02T11:11:30.936Z,25.50
2022-09-02T11:14:21.326Z,25.50
2022-09-02T11:16:55.510Z,25.50
2022-09-02T11:19:42.624Z,25.60
2022-09-02T11:22:26.870Z,25.50
2022-09-02T11:25:11.305Z,25.70
2022-09-02T11:28:14.723Z,25.80
2022-09-02T11:31:38.911Z,26.00
2022-09-02T11:34:35.320Z,26.10
2022-09-02T11:37:10.689Z,26.00
2022-09-02T11:40:30.352Z,26.00
2022-09-02T11:43:26.267Z,26.10
2022-09-02T11:47:09.122Z,26.40
2022-09-02T11:50:03.462Z,26.50
2022-09-02T11:52:58.958Z,26.50
2022-09-02T11:55:43.315Z,26.60
2022-09-02T11:58:32.267Z,26.60
2022-09-02T12:01:36.237Z,26.50
2022-09-02T12:04:55.741Z,26.60
2022-09-02T12:07:09.113Z,26.70
2022-09-02T12:09:55.762Z,26.70
2022-09-02T12:12:41.466Z,27.00
2022-09-02T12:15:17.876Z,26.90
2022-09-02T12:17:50.855Z,26.80
2022-09-02T12:20:36.473Z,27.00
2022-09-02T12:23:04.574Z,27.20
2022-09-02T12:25:33.995Z,27.30
2022-09-02T12:28:25.687Z,27.10
2022-09-02T12:31:01.623Z,27.20
2022-09-02T12:33:36.956Z,27.20
2022-09-02T12:36:06.828Z,27.20
2022-09-02T12:38:38.964Z,27.40
2022-09-02T12:41:08.730Z,27.30
2022-09-02T12:43:44.586Z,27.40
2022-09-02T12:46:32.934Z,27.50
2022-09-02T12:49:15.134Z,27.70
2022-09-02T12:52:03.744Z,27.50
2022-09-02T12:54:47.802Z,27.50
2022-09-02T12:57:17.873Z,27.10
2022-09-02T12:59:47.551Z,27.10
2022-09-02T13:02:45.266Z,27.10
2022-09-02T13:05:27.540Z,27.30
2022-09-02T13:08:41.210Z,27.40
2022-09-02T13:11:42.415Z,27.30
2022-09-02T13:15:22.616Z,27.40
2022-09-02T13:18:20.712Z,27.50
2022-09-02T13:20:56.723Z,26.90
2022-09-02T13:23:31.613Z,26.30
2022-09-02T13:26:49.438Z,26.20
2022-09-02T13:29:44.959Z,26.40
2022-09-02T13:32:23.625Z,26.70
2022-09-02T13:34:56.042Z,26.80
2022-09-02T13:37:31.741Z,26.90
2022-09-02T13:40:01.781Z,26.90
2022-09-02T13:42:31.976Z,27.10
2022-09-02T13:45:22.281Z,27.10
2022-09-02T13:47:59.302Z,27.20
2022-09-02T13:50:30.174Z,27.40
2022-09-02T13:55:54.053Z,27.50
2022-09-02T13:58:42.503Z,27.50
2022-09-02T14:04:24.164Z,27.40
2022-09-02T14:06:53.770Z,27.40
2022-09-02T14:09:26.338Z,27.40
2022-09-02T14:11:54.530Z,27.30
2022-09-02T14:14:24.489Z,26.90
2022-09-02T14:16:52.690Z,26.70
2022-09-02T14:19:25.226Z,26.40
2022-09-02T14:21:58.032Z,26.10
2022-09-02T14:24:37.840Z,26.20
2022-09-02T14:27:18.298Z,26.40
2022-09-02T14:29:48.259Z,26.60
2022-09-02T14:32:26.670Z,26.90
2022-09-02T14:35:08.613Z,26.80
2022-09-02T14:37:53.068Z,26.80
2022-09-02T14:40:39.488Z,27.00
2022-09-02T14:43:15.505Z,26.80
2022-09-02T14:45:50.233Z,26.80
2022-09-02T14:48:23.677Z,26.80
2022-09-02T14:51:03.848Z,26.90
2022-09-02T14:53:32.084Z,26.80
2022-09-02T14:56:00.060Z,26.60
2022-09-02T14:58:28.327Z,26.60
2022-09-02T15:01:00.991Z,26.50
2022-09-02T15:03:30.854Z,26.40
2022-09-02T15:05:58.406Z,26.30
2022-09-02T15:08:25.688Z,26.20
2022-09-02T15:10:54.345Z,26.10
2022-09-02T15:13:33.729Z,26.10
2022-09-02T15:16:02.786Z,26.10
2022-09-02T15:18:30.145Z,26.10
2022-09-02T15:20:57.801Z,26.00
2022-09-02T15:23:25.372Z,25.90
2022-09-02T15:25:54.145Z,25.90
2022-09-02T15:28:21.263Z,25.90
2022-09-02T15:30:48.549Z,25.80
2022-09-02T15:33:16.688Z,25.70
2022-09-02T15:35:47.312Z,25.70
2022-09-02T15:38:14.848Z,25.60
2022-09-02T15:40:41.980Z,25.60
2022-09-02T15:43:09.322Z,25.50
2022-09-02T15:45:45.455Z,25.40
2022-09-02T15:48:12.625Z,25.40
2022-09-02T15:50:39.792Z,25.40
2022-09-02T15:53:06.974Z,25.60
2022-09-02T15:55:34.804Z,25.70
2022-09-02T15:58:02.380Z,25.70
2022-09-02T16:00:34.527Z,25.70
2022-09-02T16:03:01.529Z,25.60
2022-09-02T16:05:30.631Z,25.70
2022-09-02T16:07:57.984Z,25.80
2022-09-02T16:10:25.020Z,25.80
2022-09-02T16:12:52.017Z,25.80
2022-09-02T16:15:20.124Z,25.80
2022-09-02T16:17:47.142Z,25.60
2022-09-02T16:20:17.995Z,25.60
2022-09-02T16:22:48.583Z,25.60
2022-09-02T16:25:15.594Z,25.50
2022-09-02T16:27:55.810Z,25.50
2022-09-02T16:30:25.633Z,25.50
2022-09-02T16:32:53.575Z,25.50
2022-09-02T16:35:20.590Z,25.40
2022-09-02T16:37:47.704Z,25.20
2022-09-02T16:40:21.189Z,25.10
2022-09-02T16:42:48.674Z,25.10
2022-09-02T16:45:16.071Z,25.00
2022-09-02T16:47:43.048Z,25.00
2022-09-02T16:50:12.045Z,24.80
2022-09-02T16:52:41.016Z,24.70
2022-09-02T16:55:08.554Z,24.60
2022-09-02T16:57:35.541Z,24.50
2022-09-02T17:00:04.058Z,24.40
2022-09-02T17:02:31.278Z,24.30
2022-09-02T17:04:58.335Z,24.20
2022-09-02T17:07:25.400Z,24.10
2022-09-02T17:09:52.417Z,24.00
2022-09-02T17:12:19.399Z,23.90
2022-09-02T17:14:47.203Z,23.90
2022-09-02T17:17:17.047Z,23.80
2022-09-02T17:19:44.070Z,23.70
2022-09-02T17:22:11.092Z,23.70
2022-09-02T17:24:41.779Z,23.60
2022-09-02T17:27:08.956Z,23.50
2022-09-02T17:29:51.326Z,23.50
2022-09-02T17:32:19.520Z,23.40
2022-09-02T17:34:48.951Z,23.30
2022-09-02T17:37:15.984Z,23.20
2022-09-02T17:39:43.195Z,23.10
2022-09-02T17:42:10.480Z,23.00
2022-09-02T17:44:39.585Z,22.80
2022-09-02T17:47:09.195Z,22.80
2022-09-02T17:49:38.229Z,22.70
2022-09-02T17:52:07.920Z,22.60
2022-09-02T17:54:36.737Z,22.50
2022-09-02T17:57:33.694Z,22.40
2022-09-02T18:00:15.819Z,22.30
2022-09-02T18:03:03.016Z,22.00
2022-09-02T18:05:36.748Z,22.00
2022-09-02T18:08:32.354Z,21.80
2022-09-02T18:11:04.447Z,21.60
2022-09-02T18:14:22.160Z,21.50
2022-09-02T18:17:19.295Z,21.30
2022-09-02T18:20:13.792Z,21.10
2022-09-02T18:23:11.691Z,21.10
2022-09-02T18:26:13.452Z,21.00
2022-09-02T18:29:16.198Z,21.00
2022-09-02T18:31:49.685Z,20.90
2022-09-02T18:34:41.445Z,20.80
2022-09-02T18:37:13.869Z,20.70
2022-09-02T18:40:38.055Z,20.70
2022-09-02T18:43:23.368Z,20.60
2022-09-02T18:45:54.613Z,20.50
2022-09-02T18:48:28.570Z,20.40
2022-09-02T18:51:43.303Z,20.30
2022-09-02T18:54:23.721Z,20.30
2022-09-02T18:56:58.311Z,20.10
2022-09-02T18:59:49.939Z,20.00
2022-09-02T19:02:28.827Z,19.90
2022-09-02T19:05:01.593Z,19.80
2022-09-02T19:07:47.600Z,19.80
2022-09-02T19:10:15.335Z,19.80
2022-09-02T19:12:43.672Z,19.80
2022-09-02T19:15:13.058Z,19.80
2022-09-02T19:17:40.805Z,19.70
2022-09-02T19:20:09.655Z,19.70
2022-09-02T19:22:41.962Z,19.80
2022-09-02T19:25:16.081Z,19.70
2022-09-02T19:27:45.412Z,19.70
2022-09-02T19:30:18.690Z,19.60
2022-09-02T19:32:50.888Z,19.60
2022-09-02T19:35:22.946Z,19.60
2022-09-02T19:37:53.200Z,19.60
2022-09-02T19:40:28.565Z,19.60
2022-09-02T19:42:55.674Z,19.50
2022-09-02T19:45:22.799Z,19.50
2022-09-02T19:48:06.615Z,19.60
2022-09-02T19:50:38.258Z,19.50
2022-09-02T19:53:05.927Z,19.40
2022-09-02T19:55:33.797Z,19.40
2022-09-02T19:58:01.113Z,19.30
2022-09-02T20:00:28.384Z,19.30
2022-09-02T20:02:56.114Z,19.30
2022-09-02T20:05:25.273Z,19.20
2022-09-02T20:07:54.083Z,19.10
2022-09-02T20:10:26.885Z,19.10
2022-09-02T20:12:55.473Z,19.10
2022-09-02T20:15:22.535Z,19.00
2022-09-02T20:17:49.810Z,19.00
2022-09-02T20:20:21.679Z,19.00
2022-09-02T20:22:55.144Z,18.80
2022-09-02T20:25:36.498Z,18.90
2022-09-02T20:28:23.478Z,18.70
2022-09-02T20:31:08.408Z,18.70
2022-09-02T20:34:05.431Z,18.70
2022-09-02T20:37:23.346Z,18.60
2022-09-02T20:40:26.964Z,18.50
2022-09-02T20:43:26.030Z,18.40
2022-09-02T20:46:32.891Z,18.40
2022-09-02T20:49:24.986Z,18.30
2022-09-02T20:52:08.830Z,18.30
2022-09-02T20:55:11.201Z,18.20
2022-09-02T20:58:36.867Z,18.10
2022-09-02T21:01:14.007Z,18.10
2022-09-02T21:04:07.526Z,18.10
2022-09-02T21:06:43.883Z,18.00
2022-09-02T21:09:43.838Z,18.00
2022-09-02T21:12:37.011Z,18.00
2022-09-02T21:15:31.158Z,18.10
2022-09-02T21:18:23.017Z,18.00
2022-09-02T21:20:59.407Z,18.00
2022-09-02T21:23:41.598Z,18.00
2022-09-02T21:26:18.470Z,17.90
2022-09-02T21:29:05.054Z,18.00
2022-09-02T21:32:23.258Z,18.00
2022-09-02T21:35:03.613Z,18.00
2022-09-02T21:37:33.781Z,18.00
2022-09-02T21:40:07.489Z,18.00
2022-09-02T21:42:52.219Z,18.00
2022-09-02T21:45:29.394Z,17.90
2022-09-02T21:48:40.850Z,17.90
2022-09-02T21:51:41.683Z,17.80
2022-09-02T21:54:48.689Z,17.70
2022-09-02T21:57:45.304Z,17.70
2022-09-02T22:00:16.837Z,17.60
2022-09-02T22:03:00.847Z,17.40
2022-09-02T22:05:31.167Z,17.40
2022-09-02T22:08:34.471Z,17.30
2022-09-02T22:11:37.249Z,17.30
2022-09-02T22:14:32.954Z,17.20
2022-09-02T22:17:14.418Z,17.20
2022-09-02T22:19:42.996Z,17.20
2022-09-02T22:22:15.602Z,17.20
2022-09-02T22:24:43.514Z,17.20
2022-09-02T22:27:28.604Z,17.10
2022-09-02T22:30:07.754Z,17.10
2022-09-02T22:32:46.773Z,17.10
2022-09-02T22:35:47.631Z,17.10
2022-09-02T22:38:26.463Z,17.10
2022-09-02T22:41:00.639Z,17.00
2022-09-02T22:43:43.281Z,17.00
2022-09-02T22:46:36.777Z,17.00
2022-09-02T22:49:33.884Z,17.00
2022-09-02T22:52:40.684Z,17.00
2022-09-02T22:55:14.434Z,16.90
2022-09-02T22:58:22.387Z,16.90
2022-09-02T23:01:28.239Z,16.80
2022-09-02T23:04:21.361Z,16.80
2022-09-02T23:06:48.529Z,16.80
2022-09-02T23:09:18.443Z,16.70
2022-09-02T23:12:06.651Z,16.70
2022-09-02T23:14:35.753Z,16.70
2022-09-02T23:17:20.768Z,16.60
2022-09-02T23:20:10.872Z,16.60
2022-09-02T23:23:09.274Z,16.60
2022-09-02T23:25:55.435Z,16.60
2022-09-02T23:28:52.378Z,16.60
2022-09-02T23:31:24.309Z,16.60
2022-09-02T23:34:14.604Z,16.60
2022-09-02T23:37:09.632Z,16.50
2022-09-02T23:40:00.819Z,16.60
2022-09-02T23:42:29.430Z,16.50
2022-09-02T23:45:08.279Z,16.50
2022-09-02T23:48:09.674Z,16.40
2022-09-02T23:50:59.838Z,16.40
2022-09-02T23:53:40.322Z,16.40
2022-09-02T23:56:53.884Z,16.30
2022-09-02T23:59:36.592Z,16.30
